• Join FlightAware (Why Join?)
  • Login
  • US Flag 
11:55PM EDT


 

Airport Tracker/Info


-or-


 

Live Flight TrackerFlight Track Log ✈ UPS1276 ✈ 25-Jul-2012 ✈ KSDF - KRDU

Flight Track Log - Related Links

Times and Time Zones

All times are in EDT time to prevent confusion due to time zone crossing. See the UPS1276 flight status page for this flight to view local times or setup timezone preferences in your user account.

Time Position Orientation Groundspeed Altitude Reporting Facility
EDT Latitude Longitude Course Direction KTS MPH feet Rate Location/Type
04:22AM 38.1456 -85.7022 120° Southeast 190 219 2,200  Level FAA TRACON SMA TRACON (SMA)
04:22AM 38.1356 -85.6800 120° Southeast 223 257 2,700 1,620 Climbing FAA TRACON SMA TRACON (SMA)
04:22AM 38.1239 -85.6547 122° Southeast 260 299 3,300 3,120 Climbing FAA TRACON SMA TRACON (SMA)
04:23AM 38.1072 -85.6211 121° Southeast 292 336 4,800 4,320 Climbing FAA TRACON SMA TRACON (SMA)
04:23AM 38.0944 -85.5939 107° East 296 341 6,200 4,020 Climbing FAA TRACON SMA TRACON (SMA)
04:23AM 38.0872 -85.5633 99° East 296 341 7,500 3,900 Climbing FAA TRACON SMA TRACON (SMA)
04:24AM 38.0825 -85.5236 97° East 297 342 8,800 3,600 Climbing FAA TRACON SMA TRACON (SMA)
04:24AM 38.0794 -85.4906 98° East 302 348 9,900 3,060 Climbing FAA TRACON SMA TRACON (SMA)
04:24AM 38.0758 -85.4569 98° East 310 357 10,800 2,400 Climbing FAA TRACON SMA TRACON (SMA)
04:25AM 38.0708 -85.4119 98° East 331 381 11,500 1,860 Climbing FAA TRACON SMA TRACON (SMA)
04:25AM 38.0667 -85.3728 98° East 357 411 12,100 1,800 Climbing FAA TRACON SMA TRACON (SMA)
04:25AM 38.0608 -85.3208 109° East 385 443 12,800 1,620 Climbing FAA TRACON SMA TRACON (SMA)
04:26AM 38.0492 -85.2783 112° Southeast 409 471 13,300 1,620 Climbing FAA TRACON SMA TRACON (SMA)
04:26AM 38.0356 -85.2347 110° East 428 493 13,800 1,620 Climbing FAA TRACON SMA TRACON (SMA)
04:26AM 38.0222 -85.1889 111° Southeast 447 514 14,300 2,220 Climbing FAA TRACON SMA TRACON (SMA)
04:27AM 38.0042 -85.1297 110° East 466 536 15,300 3,000 Climbing FAA TRACON SMA TRACON (SMA)
04:27AM 37.9906 -85.0817 111° Southeast 474 545 16,300 2,520 Climbing FAA TRACON SMA TRACON (SMA)
04:27AM 37.9758 -85.0333 110° East 477 549 17,000 2,400 Climbing FAA TRACON SMA TRACON (SMA)
04:28AM 37.9581 -84.9714 111° Southeast 486 559 17,900 2,400 Climbing FAA TRACON SMA TRACON (SMA)
04:28AM 37.9428 -84.9211 111° Southeast 494 568 18,600 2,220 Climbing FAA TRACON SMA TRACON (SMA)
04:28AM 37.9275 -84.8708 109° East 499 574 19,400 2,400 Climbing FAA TRACON SMA TRACON (SMA)
04:29AM 37.9094 -84.8061 111° Southeast 505 581 20,200 2,220 Climbing FAA TRACON SMA TRACON (SMA)
04:29AM 37.8936 -84.7542 111° Southeast 512 589 20,900 2,100 Climbing FAA TRACON SMA TRACON (SMA)
04:29AM 37.8739 -84.6886 111° Southeast 518 596 21,600 2,100 Climbing FAA TRACON SMA TRACON (SMA)
04:30AM 37.8578 -84.6353 114° Southeast 524 603 22,300 1,920 Climbing FAA TRACON SMA TRACON (SMA)
04:31AM 37.7914 -84.4506 111° Southeast 520 598 24,500 2,160 Climbing Indianapolis Center
04:32AM 37.7383 -84.2739 111° Southeast 528 608 27,000 2,700 Climbing Indianapolis Center
04:33AM 37.6850 -84.1028 111° Southeast 529 609 29,900 2,640 Climbing Indianapolis Center
04:34AM 37.6336 -83.9319 99° East 522 601 32,300 2,220 Climbing Indianapolis Center
04:35AM 37.6108 -83.7564 96° East 505 581 34,400 1,320 Climbing Indianapolis Center
04:36AM 37.5964 -83.5806 97° East 505 581 35,000 300 Climbing Indianapolis Center
04:37AM 37.5797 -83.4078 96° East 499 574 35,000  Level Indianapolis Center
04:38AM 37.5647 -83.2322 96° East 499 574 35,000 300 Level Indianapolis Center
04:39AM 37.5517 -83.0750 96° East 499 574 35,700 480 Climbing Indianapolis Center
04:40AM 37.5364 -82.8969 96° East 499 574 36,000 120 Climbing Indianapolis Center
04:41AM 37.5225 -82.7217 99° East 499 574 36,000  Level Indianapolis Center
04:42AM 37.5003 -82.5439 115° Southeast 505 581 36,000 60 Level Indianapolis Center
04:43AM 37.4406 -82.3825 117° Southeast 495 570 36,200 480 Climbing Indianapolis Center
04:44AM 37.3742 -82.2217 118° Southeast 508 585 37,000 240 Climbing Indianapolis Center
04:46AM 37.2297 -81.8753 118° Southeast 512 589 37,000  Level Atlanta Center
04:47AM 37.1644 -81.7183 118° Southeast 512 589 37,000  Level Atlanta Center
04:48AM 37.0989 -81.5614 120° Southeast 507 583 37,000  Level Atlanta Center
04:49AM 37.0289 -81.4078 118° Southeast 514 592 37,000  Level Atlanta Center
04:50AM 36.9608 -81.2489 119° Southeast 514 592 37,000  Level Atlanta Center
04:51AM 36.8903 -81.0878 118° Southeast 514 592 37,100  Climbing Atlanta Center
04:52AM 36.8306 -80.9447 118° Southeast 514 592 37,000 -660 Descending Atlanta Center
04:53AM 36.7639 -80.7894 119° Southeast 514 592 35,800 -2,520 Descending Atlanta Center
04:55AM 36.6394 -80.5050 118° Southeast 518 596 30,300 -3,360 Descending Washington Center
04:55AM 36.5764 -80.3589 119° Southeast 524 603 26,800 -3,360 Descending Washington Center
04:57AM 36.5056 -80.1969 119° Southeast 529 609 23,600 -2,940 Descending Washington Center
04:58AM 36.4364 -80.0406 119° Southeast 529 609 20,900 -3,120 Descending Washington Center
04:58AM 36.3631 -79.8789 117° Southeast 507 583 17,600 -3,120 Descending Washington Center
04:59AM 36.3014 -79.7311 120° Southeast 485 558 14,800 -2,280 Descending Washington Center
05:01AM 36.2489 -79.6178 119° Southeast 441 507 13,000 -840 Descending Washington Center
05:02AM 36.1908 -79.4886 119° Southeast 399 459 13,100  Climbing Washington Center
05:03AM 36.1419 -79.3806 116° Southeast 393 452 13,000 -420 Descending Washington Center
05:04AM 36.0917 -79.2522 97° East 384 442 12,300 -1,140 Descending Washington Center
05:05AM 36.0822 -79.1517 99° East 338 389 10,800 -1,860 Descending Washington Center
05:06AM 36.0686 -79.0456 96° East 317 365 8,600 -2,160 Descending Washington Center
05:07AM 36.0592 -78.9425 96° East 306 352 6,600 -2,280 Descending Washington Center
05:07AM 36.0500 -78.8400 102° East 272 313 4,700 -1,920 Descending FlightAware
05:08AM 36.0494 -78.8367 98° East 291 335 4,700 -1,440 Level Washington Center
05:09AM 36.0392 -78.7517 98° East 266 306 2,900 -1,140 Descending Washington Center
05:10AM 36.0292 -78.6639 186° South 193 222 2,200 -360 Descending Washington Center
05:11AM 35.9850 -78.6697 223° Southwest 186 214 2,200 -120 Level Washington Center
05:12AM 35.9528 -78.7069 225° Southwest 175 201 2,000 -540 Descending Washington Center
05:13AM 35.9183 -78.7492 217° Southwest 167 192 1,200 -840 Descending Washington Center
05:21AM 35.1370 -79.4759 37° Northeast  Level Estimated
05:22AM 35.8667 -78.7833 343° North  Level FlightAware Approximate
05:23AM 35.9881 -78.8292 343° North  Level Estimated